createdAt,value
2023-03-18T00:01:35.223Z,6.87
2023-03-18T00:04:02.289Z,6.77
2023-03-18T00:06:30.149Z,7.37
2023-03-18T00:08:58.252Z,6.97
2023-03-18T00:11:25.275Z,7.60
2023-03-18T00:13:52.960Z,6.37
2023-03-18T00:16:21.308Z,7.40
2023-03-18T00:18:50.596Z,6.83
2023-03-18T00:21:17.363Z,6.30
2023-03-18T00:23:44.122Z,6.13
2023-03-18T00:26:11.939Z,6.40
2023-03-18T00:28:38.771Z,6.50
2023-03-18T00:31:10.619Z,7.10
2023-03-18T00:33:38.256Z,5.97
2023-03-18T00:36:06.570Z,6.13
2023-03-18T00:38:35.887Z,6.40
2023-03-18T00:41:11.709Z,6.13
2023-03-18T00:43:46.848Z,6.40
2023-03-18T00:46:18.969Z,5.77
2023-03-18T00:48:45.876Z,6.37
2023-03-18T00:51:14.252Z,6.60
2023-03-18T00:53:54.173Z,7.07
2023-03-18T00:56:25.637Z,5.93
2023-03-18T00:58:52.616Z,5.87
2023-03-18T01:01:23.007Z,5.67
2023-03-18T01:03:50.190Z,5.73
2023-03-18T01:06:22.898Z,5.43
2023-03-18T01:08:52.461Z,6.03
2023-03-18T01:11:19.503Z,5.60
2023-03-18T01:13:46.288Z,5.90
2023-03-18T01:16:15.477Z,5.70
2023-03-18T01:18:44.814Z,5.57
2023-03-18T01:21:12.104Z,5.77
2023-03-18T01:23:39.141Z,6.13
2023-03-18T01:26:08.367Z,5.50
2023-03-18T01:28:37.637Z,5.93
2023-03-18T01:31:08.206Z,5.60
2023-03-18T01:33:35.712Z,5.10
2023-03-18T01:36:03.908Z,5.33
2023-03-18T01:38:30.911Z,5.53
2023-03-18T01:40:58.804Z,5.40
2023-03-18T01:43:32.153Z,5.33
2023-03-18T01:46:02.573Z,4.97
2023-03-18T01:48:33.679Z,4.97
2023-03-18T01:51:04.205Z,5.03
2023-03-18T01:53:36.146Z,4.83
2023-03-18T01:56:03.575Z,5.50
2023-03-18T01:58:34.278Z,5.20
2023-03-18T02:01:12.253Z,4.60
2023-03-18T02:03:40.497Z,4.60
2023-03-18T02:06:10.190Z,5.13
2023-03-18T02:08:37.887Z,4.60
2023-03-18T02:11:04.865Z,4.97
2023-03-18T02:13:39.029Z,4.93
2023-03-18T02:16:11.403Z,4.87
2023-03-18T02:18:43.964Z,5.27
2023-03-18T02:21:19.105Z,4.87
2023-03-18T02:24:13.966Z,4.63
2023-03-18T02:27:01.771Z,4.97
2023-03-18T02:29:31.204Z,5.27
2023-03-18T02:32:00.063Z,4.83
2023-03-18T02:34:27.058Z,4.50
2023-03-18T02:36:53.919Z,5.73
2023-03-18T02:39:24.111Z,4.60
2023-03-18T02:41:50.950Z,5.13
2023-03-18T02:44:18.507Z,4.40
2023-03-18T02:46:54.153Z,4.43
2023-03-18T02:49:21.738Z,4.23
2023-03-18T02:51:49.351Z,4.60
2023-03-18T02:54:22.412Z,4.40
2023-03-18T02:56:49.435Z,4.40
2023-03-18T02:59:18.574Z,4.23
2023-03-18T03:01:46.670Z,3.93
2023-03-18T03:04:13.765Z,4.20
2023-03-18T03:06:43.229Z,4.00
2023-03-18T03:09:11.012Z,4.23
2023-03-18T03:11:37.857Z,3.97
2023-03-18T03:14:04.872Z,4.40
2023-03-18T03:16:31.767Z,4.17
2023-03-18T03:18:58.919Z,4.70
2023-03-18T03:21:28.151Z,4.63
2023-03-18T03:23:54.990Z,3.90
2023-03-18T03:26:24.933Z,3.90
2023-03-18T03:28:51.757Z,3.63
2023-03-18T03:31:18.565Z,3.53
2023-03-18T03:33:45.407Z,3.60
2023-03-18T03:36:15.615Z,4.20
2023-03-18T03:38:45.288Z,4.10
2023-03-18T03:41:13.388Z,3.67
2023-03-18T03:43:40.448Z,3.97
2023-03-18T03:46:07.758Z,3.93
2023-03-18T03:48:34.687Z,3.80
2023-03-18T03:51:02.266Z,3.53
2023-03-18T03:53:32.364Z,3.87
2023-03-18T03:55:59.397Z,4.07
2023-03-18T03:58:29.716Z,4.03
2023-03-18T04:00:56.466Z,4.57
2023-03-18T04:03:25.577Z,4.17
2023-03-18T04:05:54.798Z,3.97
2023-03-18T04:08:24.038Z,3.77
2023-03-18T04:10:50.843Z,3.63
2023-03-18T04:13:20.061Z,4.20
2023-03-18T04:15:52.029Z,3.87
2023-03-18T04:18:18.910Z,3.70
2023-03-18T04:20:46.310Z,3.77
2023-03-18T04:23:15.659Z,4.07
2023-03-18T04:25:42.854Z,3.77
2023-03-18T04:28:12.129Z,3.40
2023-03-18T04:30:38.892Z,4.30
2023-03-18T04:33:08.156Z,3.40
2023-03-18T04:35:37.909Z,3.73
2023-03-18T04:38:04.730Z,4.13
2023-03-18T04:40:31.775Z,3.77
2023-03-18T04:42:58.684Z,3.60
2023-03-18T04:45:28.189Z,3.97
2023-03-18T04:47:54.952Z,4.20
2023-03-18T04:50:21.848Z,4.00
2023-03-18T04:52:48.680Z,3.80
2023-03-18T04:55:16.578Z,3.50
2023-03-18T04:57:43.541Z,3.83
2023-03-18T05:00:14.938Z,3.70
2023-03-18T05:02:41.906Z,3.93
2023-03-18T05:05:11.311Z,3.90
2023-03-18T05:07:40.240Z,3.60
2023-03-18T05:10:07.565Z,3.27
2023-03-18T05:12:37.179Z,3.80
2023-03-18T05:15:07.021Z,3.53
2023-03-18T05:17:35.955Z,3.40
2023-03-18T05:20:04.466Z,3.47
2023-03-18T05:22:35.716Z,3.63
2023-03-18T05:25:02.684Z,3.60
2023-03-18T05:27:29.867Z,3.73
2023-03-18T05:29:57.028Z,3.77
2023-03-18T05:32:24.066Z,3.50
2023-03-18T05:34:51.149Z,3.60
2023-03-18T05:37:17.945Z,3.87
2023-03-18T05:39:45.507Z,3.53
2023-03-18T05:42:16.726Z,3.13
2023-03-18T05:44:46.088Z,3.73
2023-03-18T05:47:13.349Z,3.20
2023-03-18T05:49:40.103Z,3.60
2023-03-18T05:52:10.229Z,3.63
2023-03-18T05:54:37.144Z,4.47
2023-03-18T05:57:04.105Z,4.07
2023-03-18T05:59:32.963Z,3.23
2023-03-18T06:02:00.555Z,3.60
2023-03-18T06:04:27.818Z,3.97
2023-03-18T06:06:57.087Z,4.47
2023-03-18T06:09:26.124Z,3.77
2023-03-18T06:11:58.648Z,3.57
2023-03-18T06:14:31.448Z,3.73
2023-03-18T06:16:59.412Z,3.70
2023-03-18T06:19:26.217Z,3.40
2023-03-18T06:21:57.640Z,3.57
2023-03-18T06:24:26.539Z,3.60
2023-03-18T06:26:53.309Z,4.07
2023-03-18T06:29:20.082Z,4.77
2023-03-18T06:31:46.825Z,3.80
2023-03-18T06:34:19.193Z,3.60
2023-03-18T06:36:46.142Z,3.17
2023-03-18T06:39:16.120Z,3.60
2023-03-18T06:41:42.866Z,3.47
2023-03-18T06:44:14.875Z,3.20
2023-03-18T06:46:44.266Z,3.60
2023-03-18T06:49:11.526Z,3.53
2023-03-18T06:51:40.840Z,3.30
2023-03-18T06:54:07.712Z,3.63
2023-03-18T06:56:41.791Z,3.23
2023-03-18T06:59:09.766Z,3.43
2023-03-18T07:01:37.134Z,3.70
2023-03-18T07:04:06.795Z,3.90
2023-03-18T07:06:33.680Z,3.90
2023-03-18T07:09:01.311Z,3.60
2023-03-18T07:11:28.164Z,3.13
2023-03-18T07:13:54.966Z,3.47
2023-03-18T07:16:24.254Z,3.73
2023-03-18T07:18:53.624Z,3.80
2023-03-18T07:21:23.662Z,3.50
2023-03-18T07:23:50.410Z,3.73
2023-03-18T07:26:17.158Z,3.70
2023-03-18T07:28:46.563Z,3.63
2023-03-18T07:31:14.039Z,3.93
2023-03-18T07:33:41.010Z,3.17
2023-03-18T07:36:08.553Z,3.40
2023-03-18T07:38:37.534Z,3.60
2023-03-18T07:41:04.389Z,3.70
2023-03-18T07:43:34.016Z,3.73
2023-03-18T07:46:01.016Z,3.53
2023-03-18T07:48:27.826Z,3.27
2023-03-18T07:50:54.620Z,3.67
2023-03-18T07:53:21.365Z,3.90
2023-03-18T07:55:48.157Z,3.83
2023-03-18T07:58:15.469Z,3.50
2023-03-18T08:00:42.824Z,3.73
2023-03-18T08:03:12.141Z,3.77
2023-03-18T08:05:39.779Z,4.07
2023-03-18T08:08:06.795Z,4.10
2023-03-18T08:10:36.690Z,3.40
2023-03-18T08:13:04.097Z,3.53
2023-03-18T08:15:31.685Z,3.13
2023-03-18T08:17:58.832Z,3.87
2023-03-18T08:20:28.801Z,3.70
2023-03-18T08:22:56.852Z,4.43
2023-03-18T08:25:23.742Z,3.60
2023-03-18T08:27:53.758Z,3.77
2023-03-18T08:30:20.519Z,3.70
2023-03-18T08:32:47.345Z,4.00
2023-03-18T08:35:16.946Z,3.50
2023-03-18T08:37:43.767Z,3.90
2023-03-18T08:40:13.530Z,4.50
2023-03-18T08:42:40.344Z,3.80
2023-03-18T08:45:11.100Z,3.60
2023-03-18T08:47:38.108Z,4.07
2023-03-18T08:50:05.979Z,3.83
2023-03-18T08:52:32.858Z,3.90
2023-03-18T08:54:59.849Z,4.00
2023-03-18T08:57:28.032Z,3.03
2023-03-18T08:59:54.841Z,3.67
2023-03-18T09:02:24.833Z,3.93
2023-03-18T09:04:51.739Z,3.70
2023-03-18T09:07:19.190Z,3.50
2023-03-18T09:09:46.407Z,3.33
2023-03-18T09:12:14.166Z,3.50
2023-03-18T09:14:42.665Z,3.63
2023-03-18T09:17:09.570Z,3.50
2023-03-18T09:19:38.605Z,3.87
2023-03-18T09:22:05.598Z,3.80
2023-03-18T09:24:32.618Z,3.80
2023-03-18T09:27:00.025Z,3.47
2023-03-18T09:29:27.712Z,3.40
2023-03-18T09:31:57.057Z,3.87
2023-03-18T09:34:23.867Z,3.53
2023-03-18T09:36:53.283Z,3.53
2023-03-18T09:39:22.729Z,3.20
2023-03-18T09:42:21.387Z,3.43
2023-03-18T09:44:59.958Z,3.47
2023-03-18T09:48:05.973Z,3.73
2023-03-18T09:50:54.525Z,3.73
2023-03-18T09:53:34.679Z,3.90
2023-03-18T09:56:04.076Z,3.73
2023-03-18T09:58:46.681Z,3.43
2023-03-18T10:01:16.125Z,5.07
2023-03-18T10:03:54.167Z,5.13
2023-03-18T10:06:24.133Z,3.97
2023-03-18T10:09:14.442Z,4.90
2023-03-18T10:11:47.879Z,6.43
2023-03-18T10:14:20.580Z,3.83
2023-03-18T10:17:12.029Z,3.60
2023-03-18T10:19:38.839Z,3.47
2023-03-18T10:22:43.390Z,3.27
2023-03-18T10:25:27.575Z,4.00
2023-03-18T10:28:01.125Z,3.43
2023-03-18T10:30:49.853Z,3.70
2023-03-18T10:34:09.640Z,3.17
2023-03-18T10:37:17.222Z,4.00
2023-03-18T10:39:46.453Z,3.60
2023-03-18T10:42:20.892Z,3.67
2023-03-18T10:44:47.919Z,3.43
2023-03-18T10:47:23.492Z,3.80
2023-03-18T10:50:10.879Z,3.80
2023-03-18T10:52:59.117Z,3.60
2023-03-18T10:55:29.474Z,3.80
2023-03-18T10:57:59.126Z,3.67
2023-03-18T11:00:38.285Z,3.63
2023-03-18T11:03:05.722Z,3.63
2023-03-18T11:05:35.161Z,3.60
2023-03-18T11:08:05.422Z,3.93
2023-03-18T11:10:37.021Z,3.73
2023-03-18T11:13:04.254Z,3.63
2023-03-18T11:15:40.345Z,3.50
2023-03-18T11:18:07.185Z,3.53
2023-03-18T11:20:47.797Z,3.67
2023-03-18T11:23:20.619Z,3.73
2023-03-18T11:25:49.894Z,4.07
2023-03-18T11:28:21.864Z,3.80
2023-03-18T11:30:53.144Z,3.47
2023-03-18T11:33:21.648Z,3.60
2023-03-18T11:36:13.265Z,3.77
2023-03-18T11:38:40.111Z,3.37
2023-03-18T11:41:22.532Z,3.70
2023-03-18T11:43:55.909Z,3.37
2023-03-18T11:46:23.980Z,3.67
2023-03-18T11:48:55.673Z,4.13
2023-03-18T11:51:46.622Z,3.27
2023-03-18T11:54:35.138Z,3.73
2023-03-18T11:57:18.354Z,3.47
2023-03-18T12:00:05.639Z,3.50
2023-03-18T12:02:56.643Z,3.60
2023-03-18T12:05:48.688Z,3.45
2023-03-18T12:08:34.376Z,3.97
2023-03-18T12:11:28.885Z,3.67
2023-03-18T12:14:05.630Z,3.77
2023-03-18T12:16:37.306Z,4.00
2023-03-18T12:19:16.517Z,3.63
2023-03-18T12:21:52.812Z,3.67
2023-03-18T12:24:47.620Z,3.37
2023-03-18T12:27:17.429Z,3.73
2023-03-18T12:29:47.049Z,3.60
2023-03-18T12:32:22.837Z,3.93
2023-03-18T12:35:14.150Z,3.73
2023-03-18T12:37:47.910Z,3.80
2023-03-18T12:40:33.120Z,3.83
2023-03-18T12:43:26.176Z,3.63
2023-03-18T12:46:03.693Z,3.53
2023-03-18T12:48:43.767Z,3.40
2023-03-18T12:51:16.334Z,4.30
2023-03-18T12:53:49.193Z,4.20
2023-03-18T12:56:21.592Z,3.47
2023-03-18T12:58:57.272Z,4.00
2023-03-18T13:01:34.972Z,3.67
2023-03-18T13:04:13.668Z,3.93
2023-03-18T13:06:53.843Z,3.63
2023-03-18T13:09:34.794Z,4.10
2023-03-18T13:12:07.400Z,3.53
2023-03-18T13:14:52.791Z,3.93
2023-03-18T13:17:29.756Z,4.23
2023-03-18T13:20:03.369Z,4.10
2023-03-18T13:22:42.476Z,3.87
2023-03-18T13:25:21.083Z,3.40
2023-03-18T13:27:54.087Z,3.37
2023-03-18T13:30:35.510Z,3.40
2023-03-18T13:33:33.714Z,3.70
2023-03-18T13:36:38.228Z,3.77
2023-03-18T13:39:19.488Z,3.27
2023-03-18T13:42:20.643Z,3.60
2023-03-18T13:44:56.633Z,3.73
2023-03-18T13:47:23.694Z,3.60
2023-03-18T13:50:22.316Z,3.60
2023-03-18T13:52:54.294Z,3.87
2023-03-18T13:55:39.845Z,3.50
2023-03-18T13:58:16.391Z,3.70
2023-03-18T14:01:25.489Z,4.07
2023-03-18T14:04:15.574Z,3.93
2023-03-18T14:06:54.428Z,3.80
2023-03-18T14:10:17.944Z,4.00
2023-03-18T14:12:47.466Z,3.80
2023-03-18T14:15:14.938Z,3.50
2023-03-18T14:17:41.956Z,3.97
2023-03-18T14:20:17.835Z,4.30
2023-03-18T14:23:23.563Z,4.03
2023-03-18T14:25:54.780Z,3.80
2023-03-18T14:28:25.598Z,4.10
2023-03-18T14:31:15.381Z,4.10
2023-03-18T14:34:16.570Z,4.47
2023-03-18T14:36:52.619Z,4.10
2023-03-18T14:39:41.451Z,4.30
2023-03-18T14:42:31.729Z,4.10
2023-03-18T14:45:09.859Z,4.30
2023-03-18T14:47:59.592Z,4.10
2023-03-18T14:50:43.157Z,4.10
2023-03-18T14:53:22.815Z,3.87
2023-03-18T14:55:51.603Z,4.47
2023-03-18T14:58:19.815Z,3.93
2023-03-18T15:00:58.011Z,4.00
2023-03-18T15:03:28.088Z,4.07
2023-03-18T15:05:56.704Z,4.20
2023-03-18T15:08:37.413Z,3.80
2023-03-18T15:11:14.263Z,4.50
2023-03-18T15:13:48.739Z,4.73
2023-03-18T15:16:21.559Z,4.30
2023-03-18T15:18:52.828Z,4.27
2023-03-18T15:21:34.499Z,5.03
2023-03-18T15:24:03.971Z,4.63
2023-03-18T15:26:34.182Z,5.20
2023-03-18T15:29:23.054Z,5.57
2023-03-18T15:31:53.016Z,4.57
2023-03-18T15:34:19.827Z,5.00
2023-03-18T15:36:54.829Z,4.97
2023-03-18T15:39:27.441Z,4.67
2023-03-18T15:41:54.552Z,5.53
2023-03-18T15:44:32.192Z,5.33
2023-03-18T15:47:16.697Z,4.87
2023-03-18T15:49:53.293Z,5.07
2023-03-18T15:52:26.308Z,4.80
2023-03-18T15:54:55.683Z,4.83
2023-03-18T15:57:38.136Z,5.10
2023-03-18T16:00:09.968Z,5.53
2023-03-18T16:02:39.237Z,5.10
2023-03-18T16:05:19.396Z,5.07
2023-03-18T16:07:46.882Z,5.13
2023-03-18T16:10:18.643Z,5.13
2023-03-18T16:12:55.269Z,5.23
2023-03-18T16:15:24.039Z,5.47
2023-03-18T16:17:54.578Z,5.70
2023-03-18T16:20:23.857Z,5.33
2023-03-18T16:22:53.563Z,5.73
2023-03-18T16:25:20.465Z,5.20
2023-03-18T16:27:50.545Z,5.60
2023-03-18T16:30:20.376Z,4.73
2023-03-18T16:32:49.396Z,5.13
2023-03-18T16:35:17.337Z,5.33
2023-03-18T16:37:46.950Z,5.57
2023-03-18T16:40:20.806Z,5.70
2023-03-18T16:42:48.101Z,5.30
2023-03-18T16:45:18.497Z,5.23
2023-03-18T16:47:53.304Z,5.60
2023-03-18T16:50:24.871Z,6.00
2023-03-18T16:52:51.811Z,6.00
2023-03-18T16:55:21.233Z,5.70
2023-03-18T16:58:03.775Z,6.00
2023-03-18T17:00:36.813Z,5.83
2023-03-18T17:03:03.641Z,5.80
2023-03-18T17:05:30.907Z,6.90
2023-03-18T17:07:57.883Z,5.50
2023-03-18T17:10:27.723Z,6.03
2023-03-18T17:13:09.187Z,6.63
2023-03-18T17:15:37.136Z,6.20
2023-03-18T17:18:07.795Z,5.97
2023-03-18T17:20:34.556Z,6.43
2023-03-18T17:23:01.393Z,6.13
2023-03-18T17:25:31.686Z,6.30
2023-03-18T17:28:03.260Z,6.00
2023-03-18T17:30:36.426Z,5.33
2023-03-18T17:33:09.643Z,5.97
2023-03-18T17:35:38.881Z,5.97
2023-03-18T17:38:05.850Z,6.00
2023-03-18T17:40:32.680Z,5.70
2023-03-18T17:43:01.723Z,6.10
2023-03-18T17:45:29.857Z,6.40
2023-03-18T17:48:15.478Z,6.37
2023-03-18T17:50:42.570Z,6.33
2023-03-18T17:53:22.750Z,6.33
2023-03-18T17:55:49.557Z,6.83
2023-03-18T17:58:18.011Z,7.70
2023-03-18T18:00:47.302Z,8.03
2023-03-18T18:03:25.759Z,7.83
2023-03-18T18:05:54.137Z,8.33
2023-03-18T18:08:21.947Z,9.03
2023-03-18T18:10:49.019Z,9.17
2023-03-18T18:13:21.190Z,9.40
2023-03-18T18:15:50.677Z,8.93
2023-03-18T18:18:25.593Z,8.10
2023-03-18T18:21:02.041Z,8.60
2023-03-18T18:23:36.321Z,8.87
2023-03-18T18:26:05.381Z,8.27
2023-03-18T18:28:33.334Z,9.47
2023-03-18T18:31:01.211Z,9.20
2023-03-18T18:33:28.008Z,8.63
2023-03-18T18:35:54.876Z,8.83
2023-03-18T18:38:25.741Z,8.90
2023-03-18T18:40:53.657Z,8.63
2023-03-18T18:43:21.196Z,9.27
2023-03-18T18:45:51.582Z,8.43
2023-03-18T18:48:37.935Z,9.23
2023-03-18T18:51:09.466Z,9.23
2023-03-18T18:53:36.783Z,8.77
2023-03-18T18:56:18.486Z,9.83
2023-03-18T18:58:45.698Z,9.80
2023-03-18T19:01:12.971Z,9.30
2023-03-18T19:03:41.553Z,9.50
2023-03-18T19:06:24.797Z,9.67
2023-03-18T19:08:54.305Z,9.13
2023-03-18T19:11:21.141Z,9.60
2023-03-18T19:13:47.937Z,10.10
2023-03-18T19:16:20.355Z,9.50
2023-03-18T19:18:49.652Z,9.80
2023-03-18T19:21:16.616Z,9.73
2023-03-18T19:23:45.909Z,9.80
2023-03-18T19:26:14.602Z,10.17
2023-03-18T19:28:58.450Z,10.47
2023-03-18T19:31:27.588Z,10.30
2023-03-18T19:33:54.583Z,9.83
2023-03-18T19:36:26.345Z,10.47
2023-03-18T19:38:58.255Z,10.37
2023-03-18T19:41:25.466Z,10.33
2023-03-18T19:43:54.666Z,9.73
2023-03-18T19:46:48.350Z,10.53
2023-03-18T19:49:39.441Z,10.40
2023-03-18T19:52:27.223Z,11.53
2023-03-18T19:54:56.451Z,10.87
2023-03-18T19:57:24.298Z,10.27
2023-03-18T19:59:52.320Z,10.53
2023-03-18T20:02:22.033Z,11.23
2023-03-18T20:04:51.921Z,11.00
2023-03-18T20:07:19.542Z,10.80
2023-03-18T20:09:51.416Z,12.03
2023-03-18T20:12:31.576Z,10.87
2023-03-18T20:15:00.640Z,11.60
2023-03-18T20:17:30.613Z,10.70
2023-03-18T20:19:59.977Z,11.00
2023-03-18T20:22:33.062Z,12.20
2023-03-18T20:25:01.145Z,12.27
2023-03-18T20:27:31.372Z,11.83
2023-03-18T20:29:58.447Z,11.27
2023-03-18T20:32:27.729Z,12.30
2023-03-18T20:34:54.521Z,11.80
2023-03-18T20:37:28.986Z,11.47
2023-03-18T20:40:00.609Z,11.10
2023-03-18T20:42:27.434Z,11.53
2023-03-18T20:44:56.702Z,10.67
2023-03-18T20:47:23.543Z,11.50
2023-03-18T20:49:55.536Z,11.27
2023-03-18T20:52:32.935Z,11.50
2023-03-18T20:55:01.829Z,11.97
2023-03-18T20:57:28.640Z,12.03
2023-03-18T20:59:56.011Z,11.73
2023-03-18T21:02:31.182Z,12.63
2023-03-18T21:05:04.196Z,11.77
2023-03-18T21:07:31.122Z,11.57
2023-03-18T21:09:58.001Z,11.70
2023-03-18T21:12:27.320Z,12.07
2023-03-18T21:14:54.095Z,11.43
2023-03-18T21:17:24.955Z,11.90
2023-03-18T21:19:53.031Z,11.40
2023-03-18T21:22:25.421Z,12.17
2023-03-18T21:24:52.370Z,12.33
2023-03-18T21:27:26.692Z,12.60
2023-03-18T21:29:57.796Z,12.07
2023-03-18T21:32:28.360Z,12.37
2023-03-18T21:34:55.852Z,12.47
2023-03-18T21:37:26.399Z,12.43
2023-03-18T21:39:53.400Z,12.70
2023-03-18T21:42:23.991Z,14.30
2023-03-18T21:44:51.100Z,11.27
2023-03-18T21:47:19.441Z,12.70
2023-03-18T21:49:46.937Z,12.40
2023-03-18T21:52:28.650Z,12.17
2023-03-18T21:54:55.745Z,12.47
2023-03-18T21:57:23.057Z,13.03
2023-03-18T21:59:50.948Z,13.17
2023-03-18T22:02:29.753Z,13.73
2023-03-18T22:05:00.992Z,12.73
2023-03-18T22:07:29.150Z,12.63
2023-03-18T22:09:56.346Z,12.70
2023-03-18T22:12:24.071Z,13.03
2023-03-18T22:14:50.947Z,12.70
2023-03-18T22:17:31.639Z,13.57
2023-03-18T22:20:01.716Z,12.60
2023-03-18T22:22:35.556Z,12.10
2023-03-18T22:25:02.453Z,13.80
2023-03-18T22:27:30.070Z,13.13
2023-03-18T22:30:00.283Z,12.70
2023-03-18T22:32:40.825Z,12.80
2023-03-18T22:35:18.485Z,13.20
2023-03-18T22:37:45.552Z,14.07
2023-03-18T22:40:20.349Z,13.77
2023-03-18T22:42:48.133Z,14.40
2023-03-18T22:45:33.685Z,12.57
2023-03-18T22:48:04.138Z,13.13
2023-03-18T22:50:32.315Z,14.07
2023-03-18T22:53:06.589Z,14.23
2023-03-18T22:55:37.852Z,13.20
2023-03-18T22:58:04.894Z,13.37
2023-03-18T23:00:44.833Z,14.07
2023-03-18T23:03:14.713Z,13.83
2023-03-18T23:05:45.830Z,14.77
2023-03-18T23:08:12.699Z,12.87
2023-03-18T23:10:39.598Z,13.93
2023-03-18T23:13:26.125Z,13.00
2023-03-18T23:15:53.126Z,13.87
2023-03-18T23:18:20.239Z,14.10
2023-03-18T23:20:48.301Z,13.00
2023-03-18T23:23:17.940Z,14.00
2023-03-18T23:25:45.207Z,14.97
2023-03-18T23:28:12.439Z,13.43
2023-03-18T23:30:42.337Z,14.40
2023-03-18T23:33:09.336Z,13.67
2023-03-18T23:35:37.420Z,13.23
2023-03-18T23:38:05.011Z,13.97
2023-03-18T23:40:31.952Z,14.13
2023-03-18T23:42:58.759Z,13.73
2023-03-18T23:45:27.096Z,13.27
2023-03-18T23:47:54.802Z,14.67
2023-03-18T23:50:22.012Z,14.33
2023-03-18T23:52:51.178Z,15.03
2023-03-18T23:55:33.620Z,14.33
2023-03-18T23:58:01.389Z,14.37
